createdAt,value
2018-01-10T00:02:03.104Z,93.04
2018-01-10T00:04:30.784Z,93.17
2018-01-10T00:06:58.367Z,93.76
2018-01-10T00:09:26.058Z,94.13
2018-01-10T00:11:53.647Z,94.38
2018-01-10T00:14:21.227Z,94.83
2018-01-10T00:16:48.813Z,94.56
2018-01-10T00:19:16.395Z,94.84
2018-01-10T00:21:43.988Z,95.21
2018-01-10T00:24:11.576Z,94.87
2018-01-10T00:26:39.156Z,95.01
2018-01-10T00:29:06.740Z,95.23
2018-01-10T00:31:34.324Z,95.32
2018-01-10T00:34:01.908Z,95.20
2018-01-10T00:36:29.497Z,95.88
2018-01-10T00:38:57.119Z,96.06
2018-01-10T00:41:24.706Z,96.27
2018-01-10T00:43:52.323Z,95.74
2018-01-10T00:46:19.912Z,95.75
2018-01-10T00:48:47.559Z,95.86
2018-01-10T00:51:15.172Z,96.30
2018-01-10T00:53:42.753Z,96.42
2018-01-10T00:56:10.362Z,96.61
2018-01-10T00:58:37.951Z,96.06
2018-01-10T01:01:05.602Z,96.27
2018-01-10T01:03:33.184Z,96.50
2018-01-10T01:06:00.840Z,95.47
2018-01-10T01:08:28.420Z,94.99
2018-01-10T01:10:56.047Z,95.87
2018-01-10T01:13:23.695Z,96.76
2018-01-10T01:15:51.279Z,95.78
2018-01-10T01:18:18.891Z,95.61
2018-01-10T01:20:46.598Z,96.21
2018-01-10T01:23:14.220Z,95.95
2018-01-10T01:25:41.795Z,95.89
2018-01-10T01:28:09.414Z,95.55
2018-01-10T01:30:36.999Z,97.56
2018-01-10T01:33:04.615Z,97.99
2018-01-10T01:35:32.240Z,97.66
2018-01-10T01:37:59.851Z,98.56
2018-01-10T01:40:27.544Z,97.65
2018-01-10T01:42:55.203Z,97.17
2018-01-10T01:45:22.837Z,96.79
2018-01-10T01:47:50.411Z,96.55
2018-01-10T01:50:17.987Z,96.12
2018-01-10T01:52:45.600Z,96.02
2018-01-10T01:55:13.217Z,96.11
2018-01-10T01:57:40.791Z,96.17
2018-01-10T02:00:08.455Z,96.27
2018-01-10T02:02:36.050Z,97.75
2018-01-10T02:05:03.695Z,97.45
2018-01-10T02:07:31.320Z,96.50
2018-01-10T02:09:58.935Z,95.76
2018-01-10T02:12:26.516Z,97.10
2018-01-10T02:14:54.131Z,96.29
2018-01-10T02:17:21.780Z,95.99
2018-01-10T02:19:49.442Z,95.90
2018-01-10T02:22:17.055Z,95.80
2018-01-10T02:24:44.636Z,96.62
2018-01-10T02:27:12.255Z,97.36
2018-01-10T02:29:39.887Z,97.54
2018-01-10T02:32:07.545Z,96.85
2018-01-10T02:34:35.208Z,96.57
2018-01-10T02:37:02.873Z,96.54
2018-01-10T02:39:30.456Z,96.12
2018-01-10T02:41:58.268Z,96.26
2018-01-10T02:44:25.958Z,96.40
2018-01-10T02:46:53.631Z,96.58
2018-01-10T02:49:21.252Z,96.52
2018-01-10T02:51:48.830Z,96.82
2018-01-10T02:54:16.446Z,97.00
2018-01-10T02:56:44.036Z,97.00
2018-01-10T02:59:11.621Z,97.20
2018-01-10T03:01:39.208Z,96.91
2018-01-10T03:04:06.840Z,96.31
2018-01-10T03:06:34.424Z,96.41
2018-01-10T03:09:02.044Z,96.60
2018-01-10T03:11:29.624Z,96.79
2018-01-10T03:13:57.240Z,96.64
2018-01-10T03:16:24.898Z,96.57
2018-01-10T03:18:52.522Z,96.72
2018-01-10T03:21:20.346Z,96.80
2018-01-10T03:23:47.959Z,96.78
2018-01-10T03:26:15.620Z,96.63
2018-01-10T03:28:43.247Z,97.57
2018-01-10T03:31:10.834Z,97.55
2018-01-10T03:33:38.424Z,97.01
2018-01-10T03:36:06.035Z,96.56
2018-01-10T03:38:33.611Z,96.87
2018-01-10T03:41:01.231Z,97.01
2018-01-10T03:43:28.850Z,97.05
2018-01-10T03:45:56.468Z,96.53
2018-01-10T03:48:24.135Z,96.09
2018-01-10T03:50:51.735Z,96.55
2018-01-10T03:53:19.316Z,96.46
2018-01-10T03:55:46.895Z,96.69
2018-01-10T03:58:14.514Z,96.66
2018-01-10T04:00:42.135Z,96.75
2018-01-10T04:03:09.751Z,97.06
2018-01-10T04:05:37.331Z,97.13
2018-01-10T04:08:04.952Z,97.21
2018-01-10T04:10:32.535Z,97.24
2018-01-10T04:13:00.160Z,97.42
2018-01-10T04:15:27.735Z,97.41
2018-01-10T04:17:55.320Z,97.55
2018-01-10T04:20:22.903Z,98.84
2018-01-10T04:22:50.521Z,98.51
2018-01-10T04:25:18.203Z,98.46
2018-01-10T04:27:45.792Z,98.25
2018-01-10T04:30:13.427Z,98.11
2018-01-10T04:32:41.137Z,97.95
2018-01-10T04:35:08.719Z,97.84
2018-01-10T04:37:36.335Z,97.89
2018-01-10T04:40:03.952Z,98.08
2018-01-10T04:42:31.531Z,97.95
2018-01-10T04:44:59.159Z,98.56
2018-01-10T04:47:26.911Z,98.06
2018-01-10T04:49:54.531Z,97.82
2018-01-10T04:52:22.110Z,97.80
2018-01-10T04:54:49.746Z,97.86
2018-01-10T04:57:17.331Z,97.60
2018-01-10T04:59:44.910Z,97.50
2018-01-10T05:02:12.492Z,97.31
2018-01-10T05:04:40.105Z,97.48
2018-01-10T05:07:07.726Z,97.78
2018-01-10T05:09:35.421Z,98.01
2018-01-10T05:12:03.040Z,98.24
2018-01-10T05:14:31.630Z,98.22
2018-01-10T05:16:59.248Z,98.23
2018-01-10T05:19:26.867Z,97.84
2018-01-10T05:21:54.448Z,97.36
2018-01-10T05:24:22.061Z,97.77
2018-01-10T05:26:49.687Z,97.46
2018-01-10T05:29:17.278Z,97.73
2018-01-10T05:31:44.860Z,97.79
2018-01-10T05:34:12.440Z,97.85
2018-01-10T05:36:40.029Z,98.10
2018-01-10T05:39:07.651Z,97.96
2018-01-10T05:41:35.239Z,98.11
2018-01-10T05:44:02.864Z,98.22
2018-01-10T05:46:30.456Z,98.35
2018-01-10T05:48:58.084Z,98.20
2018-01-10T05:51:25.663Z,98.13
2018-01-10T05:53:53.247Z,98.12
2018-01-10T05:56:20.875Z,97.87
2018-01-10T05:58:48.479Z,97.99
2018-01-10T06:01:16.103Z,98.12
2018-01-10T06:03:43.690Z,98.29
2018-01-10T06:06:11.412Z,98.43
2018-01-10T06:08:38.995Z,98.49
2018-01-10T06:11:06.578Z,98.16
2018-01-10T06:13:34.172Z,98.20
2018-01-10T06:16:01.795Z,98.08
2018-01-10T06:18:29.375Z,97.98
2018-01-10T06:20:56.997Z,97.89
2018-01-10T06:23:24.624Z,97.48
2018-01-10T06:25:52.215Z,97.52
2018-01-10T06:28:19.847Z,97.47
2018-01-10T06:30:47.472Z,97.86
2018-01-10T06:33:15.068Z,98.14
2018-01-10T06:35:42.739Z,98.17
2018-01-10T06:38:10.326Z,97.86
2018-01-10T06:40:37.944Z,97.85
2018-01-10T06:43:05.529Z,97.95
2018-01-10T06:45:33.143Z,98.05
2018-01-10T06:48:00.768Z,97.85
2018-01-10T06:50:28.347Z,98.29
2018-01-10T06:52:55.967Z,98.45
2018-01-10T06:55:23.593Z,98.63
2018-01-10T06:57:51.569Z,98.49
2018-01-10T07:00:19.192Z,98.33
2018-01-10T07:02:46.887Z,98.46
2018-01-10T07:05:15.480Z,97.95
2018-01-10T07:07:43.103Z,98.24
2018-01-10T07:10:10.728Z,98.45
2018-01-10T07:12:38.319Z,98.69
2018-01-10T07:15:06.060Z,98.86
2018-01-10T07:17:33.656Z,99.11
2018-01-10T07:20:01.259Z,99.03
2018-01-10T07:22:28.914Z,99.22
2018-01-10T07:24:56.611Z,98.82
2018-01-10T07:27:24.243Z,98.92
2018-01-10T07:29:51.875Z,98.67
2018-01-10T07:32:19.463Z,98.44
2018-01-10T07:34:47.083Z,98.34
2018-01-10T07:37:14.691Z,98.22
2018-01-10T07:39:42.352Z,98.65
2018-01-10T07:42:09.935Z,98.72
2018-01-10T07:44:37.553Z,98.69
2018-01-10T07:47:05.184Z,98.71
2018-01-10T07:49:32.770Z,98.79
2018-01-10T07:52:01.642Z,98.90
2018-01-10T07:54:29.349Z,98.34
2018-01-10T07:56:56.983Z,98.26
2018-01-10T07:59:24.571Z,97.30
2018-01-10T08:01:52.196Z,97.54
2018-01-10T08:04:19.823Z,97.94
2018-01-10T08:06:47.443Z,98.29
2018-01-10T08:09:15.032Z,98.40
2018-01-10T08:11:42.656Z,98.58
2018-01-10T08:14:10.238Z,98.72
2018-01-10T08:16:37.857Z,98.39
2018-01-10T08:19:06.567Z,98.44
2018-01-10T08:21:34.147Z,98.43
2018-01-10T08:24:01.767Z,98.42
2018-01-10T08:26:29.352Z,98.29
2018-01-10T08:28:56.971Z,98.80
2018-01-10T08:31:24.555Z,98.76
2018-01-10T08:33:52.189Z,98.25
2018-01-10T08:36:19.790Z,97.70
2018-01-10T08:38:47.370Z,97.20
2018-01-10T08:41:14.963Z,97.44
2018-01-10T08:43:42.553Z,97.51
2018-01-10T08:46:10.179Z,97.94
2018-01-10T08:48:37.779Z,97.66
2018-01-10T08:51:05.394Z,97.84
2018-01-10T08:53:33.023Z,97.92
2018-01-10T08:56:00.643Z,97.70
2018-01-10T08:58:28.267Z,97.53
2018-01-10T09:00:55.867Z,97.54
2018-01-10T09:03:23.502Z,97.63
2018-01-10T09:05:51.123Z,97.44
2018-01-10T09:08:18.747Z,97.26
2018-01-10T09:10:46.366Z,97.47
2018-01-10T09:13:13.955Z,97.67
2018-01-10T09:15:41.546Z,97.43
2018-01-10T09:18:09.211Z,97.59
2018-01-10T09:20:36.790Z,97.31
2018-01-10T09:23:04.440Z,97.18
2018-01-10T09:25:32.056Z,96.83
2018-01-10T09:27:59.647Z,96.88
2018-01-10T09:30:27.302Z,96.20
2018-01-10T09:32:54.903Z,97.02
2018-01-10T09:35:22.548Z,97.36
2018-01-10T09:37:50.139Z,97.53
2018-01-10T09:40:17.784Z,97.30
2018-01-10T09:42:45.376Z,97.55
2018-01-10T09:45:12.963Z,97.88
2018-01-10T09:47:40.587Z,97.04
2018-01-10T09:50:08.391Z,97.43
2018-01-10T09:52:35.980Z,97.52
2018-01-10T09:55:03.575Z,97.30
2018-01-10T09:57:31.163Z,97.30
2018-01-10T09:59:58.789Z,97.86
2018-01-10T10:02:26.376Z,97.40
2018-01-10T10:04:54.063Z,96.33
2018-01-10T10:07:21.724Z,96.48
2018-01-10T10:09:49.351Z,96.63
2018-01-10T10:12:17.070Z,96.46
2018-01-10T10:14:44.656Z,97.10
2018-01-10T10:17:12.243Z,97.07
2018-01-10T10:19:39.864Z,97.62
2018-01-10T10:22:07.446Z,97.65
2018-01-10T10:24:35.107Z,97.63
2018-01-10T10:27:02.694Z,97.67
2018-01-10T10:29:30.311Z,97.72
2018-01-10T10:31:57.900Z,97.83
2018-01-10T10:34:25.523Z,97.91
2018-01-10T10:36:53.107Z,97.56
2018-01-10T10:39:20.736Z,97.19
2018-01-10T10:41:48.316Z,96.33
2018-01-10T10:44:16.131Z,96.37
2018-01-10T10:46:43.750Z,96.19
2018-01-10T10:49:11.427Z,96.30
2018-01-10T10:51:39.077Z,96.92
2018-01-10T10:54:06.712Z,97.21
2018-01-10T10:56:34.346Z,96.83
2018-01-10T10:59:01.940Z,96.52
2018-01-10T11:01:29.640Z,95.71
2018-01-10T11:03:57.315Z,95.93
2018-01-10T11:06:24.946Z,96.10
2018-01-10T11:08:52.574Z,96.29
2018-01-10T11:11:20.144Z,96.48
2018-01-10T11:13:47.730Z,95.56
2018-01-10T11:16:15.314Z,95.40
2018-01-10T11:18:42.894Z,95.43
2018-01-10T11:21:10.586Z,96.09
2018-01-10T11:23:38.166Z,96.43
2018-01-10T11:26:05.753Z,93.78
2018-01-10T11:28:33.423Z,93.96
2018-01-10T11:31:01.607Z,93.86
2018-01-10T11:33:29.215Z,93.19
2018-01-10T11:35:56.803Z,93.95
2018-01-10T11:38:24.431Z,95.01
2018-01-10T11:40:52.021Z,94.19
2018-01-10T11:43:19.630Z,94.34
2018-01-10T11:45:47.937Z,95.06
2018-01-10T11:48:15.645Z,93.59
2018-01-10T11:50:43.332Z,94.20
2018-01-10T11:53:11.058Z,94.19
2018-01-10T11:55:38.723Z,94.98
2018-01-10T11:58:06.313Z,94.72
2018-01-10T12:00:33.904Z,93.21
2018-01-10T12:03:01.524Z,92.51
2018-01-10T12:05:29.102Z,92.19
2018-01-10T12:07:56.692Z,93.41
2018-01-10T12:10:24.362Z,93.39
2018-01-10T12:12:51.947Z,93.63
2018-01-10T12:15:19.582Z,94.22
2018-01-10T12:17:47.158Z,94.57
2018-01-10T12:20:14.780Z,95.25
2018-01-10T12:22:42.446Z,94.23
2018-01-10T12:25:10.074Z,93.70
2018-01-10T12:27:37.691Z,93.45
2018-01-10T12:30:05.355Z,93.85
2018-01-10T12:32:32.951Z,93.14
2018-01-10T12:35:00.567Z,93.76
2018-01-10T12:37:28.211Z,92.59
2018-01-10T12:39:55.908Z,93.49
2018-01-10T12:42:23.493Z,93.87
2018-01-10T12:44:53.199Z,94.00
2018-01-10T12:47:20.894Z,94.48
2018-01-10T12:49:48.503Z,94.40
2018-01-10T12:52:16.217Z,93.05
2018-01-10T12:54:43.876Z,92.03
2018-01-10T12:57:11.494Z,93.49
2018-01-10T12:59:39.079Z,93.90
2018-01-10T13:02:06.724Z,93.23
2018-01-10T13:04:34.307Z,93.45
2018-01-10T13:07:01.891Z,94.39
2018-01-10T13:09:29.483Z,94.81
2018-01-10T13:11:57.197Z,93.28
2018-01-10T13:14:24.792Z,92.58
2018-01-10T13:16:52.371Z,92.85
2018-01-10T13:19:20.541Z,93.56
2018-01-10T13:21:48.158Z,94.88
2018-01-10T13:24:16.115Z,94.99
2018-01-10T13:26:43.701Z,95.84
2018-01-10T13:29:11.442Z,95.64
2018-01-10T13:31:39.032Z,95.81
2018-01-10T13:34:06.625Z,95.87
2018-01-10T13:36:34.222Z,95.73
2018-01-10T13:39:01.870Z,96.48
2018-01-10T13:41:29.468Z,95.67
2018-01-10T13:43:57.060Z,96.15
2018-01-10T13:46:24.650Z,96.23
2018-01-10T13:48:52.279Z,95.82
2018-01-10T13:51:19.971Z,95.01
2018-01-10T13:53:47.564Z,95.33
2018-01-10T13:56:15.153Z,94.98
2018-01-10T13:58:42.740Z,95.68
2018-01-10T14:01:10.370Z,95.85
2018-01-10T14:03:37.964Z,96.32
2018-01-10T14:06:05.652Z,96.08
2018-01-10T14:08:33.306Z,96.43
2018-01-10T14:11:00.886Z,96.56
2018-01-10T14:13:28.474Z,96.82
2018-01-10T14:15:56.065Z,96.29
2018-01-10T14:18:23.682Z,96.60
2018-01-10T14:20:51.598Z,96.90
2018-01-10T14:23:19.195Z,97.28
2018-01-10T14:25:46.790Z,97.51
2018-01-10T14:28:14.381Z,97.13
2018-01-10T14:30:42.079Z,96.93
2018-01-10T14:33:09.663Z,96.98
2018-01-10T14:35:37.255Z,97.40
2018-01-10T14:38:04.847Z,97.50
2018-01-10T14:40:32.528Z,97.63
2018-01-10T14:43:00.215Z,97.28
2018-01-10T14:45:27.807Z,97.48
2018-01-10T14:47:55.431Z,97.39
2018-01-10T14:50:23.051Z,97.85
2018-01-10T14:52:50.735Z,97.26
2018-01-10T14:55:18.359Z,97.49
2018-01-10T14:57:45.967Z,97.57
2018-01-10T15:00:13.558Z,97.81
2018-01-10T15:02:41.144Z,97.94
2018-01-10T15:05:08.745Z,97.61
2018-01-10T15:07:36.407Z,97.69
2018-01-10T15:10:04.000Z,97.01
2018-01-10T15:12:31.595Z,97.31
2018-01-10T15:14:59.327Z,97.62
2018-01-10T15:17:26.912Z,97.39
2018-01-10T15:19:54.493Z,97.87
2018-01-10T15:22:22.111Z,98.01
2018-01-10T15:24:49.700Z,97.64
2018-01-10T15:27:17.408Z,98.06
2018-01-10T15:29:45.003Z,98.20
2018-01-10T15:32:12.630Z,97.94
2018-01-10T15:34:40.279Z,98.16
2018-01-10T15:37:07.889Z,98.51
2018-01-10T15:39:35.484Z,98.30
2018-01-10T15:42:04.041Z,97.63
2018-01-10T15:44:31.687Z,97.91
2018-01-10T15:46:59.320Z,98.32
2018-01-10T15:49:26.927Z,98.29
2018-01-10T15:51:54.523Z,98.24
2018-01-10T15:54:22.212Z,98.41
2018-01-10T15:56:49.872Z,98.44
2018-01-10T15:59:17.459Z,97.61
2018-01-10T16:01:45.091Z,97.05
2018-01-10T16:04:12.700Z,96.80
2018-01-10T16:06:40.289Z,97.70
2018-01-10T16:09:07.876Z,97.37
2018-01-10T16:11:35.471Z,98.27
2018-01-10T16:14:03.059Z,98.13
2018-01-10T16:16:30.647Z,97.28
2018-01-10T16:18:59.214Z,97.09
2018-01-10T16:21:26.796Z,97.63
2018-01-10T16:23:54.382Z,97.39
2018-01-10T16:26:21.971Z,96.98
2018-01-10T16:28:49.640Z,96.39
2018-01-10T16:31:17.276Z,96.34
2018-01-10T16:33:44.864Z,96.44
2018-01-10T16:36:12.478Z,96.22
2018-01-10T16:38:40.071Z,96.37
2018-01-10T16:41:07.664Z,97.56
2018-01-10T16:43:35.359Z,97.04
2018-01-10T16:46:03.061Z,96.60
2018-01-10T16:48:30.701Z,96.47
2018-01-10T16:50:58.389Z,95.72
2018-01-10T16:53:26.016Z,97.23
2018-01-10T16:55:53.613Z,97.40
2018-01-10T16:58:21.199Z,97.74
2018-01-10T17:00:48.899Z,98.37
2018-01-10T17:03:16.493Z,98.39
2018-01-10T17:05:44.084Z,98.53
2018-01-10T17:08:11.823Z,98.62
2018-01-10T17:10:39.415Z,98.71
2018-01-10T17:13:07.004Z,98.77
2018-01-10T17:15:34.718Z,98.87
2018-01-10T17:18:02.306Z,98.91
2018-01-10T17:20:29.904Z,98.95
2018-01-10T17:22:57.572Z,99.05
2018-01-10T17:25:25.167Z,99.09
2018-01-10T17:27:52.841Z,98.87
2018-01-10T17:30:20.428Z,98.65
2018-01-10T17:32:48.045Z,98.80
2018-01-10T17:35:15.662Z,98.79
2018-01-10T17:37:43.336Z,98.84
2018-01-10T17:40:11.003Z,98.58
2018-01-10T17:42:38.623Z,98.52
2018-01-10T17:45:06.208Z,97.47
2018-01-10T17:47:33.831Z,97.87
2018-01-10T17:50:01.422Z,98.24
2018-01-10T17:52:30.033Z,98.19
2018-01-10T17:54:57.724Z,98.44
2018-01-10T17:57:25.507Z,98.60
2018-01-10T17:59:53.096Z,98.57
2018-01-10T18:02:21.462Z,98.69
2018-01-10T18:04:49.060Z,98.83
2018-01-10T18:07:16.651Z,98.89
2018-01-10T18:09:44.239Z,98.92
2018-01-10T18:12:11.819Z,98.80
2018-01-10T18:14:39.714Z,98.68
2018-01-10T18:17:07.371Z,98.56
2018-01-10T18:19:35.035Z,98.27
2018-01-10T18:22:02.623Z,98.79
2018-01-10T18:24:30.363Z,98.90
2018-01-10T18:26:57.955Z,98.92
2018-01-10T18:29:25.687Z,98.70
2018-01-10T18:31:53.404Z,98.87
2018-01-10T18:34:21.119Z,98.20
2018-01-10T18:36:48.784Z,97.97
2018-01-10T18:39:16.375Z,98.37
2018-01-10T18:41:44.107Z,98.78
2018-01-10T18:44:11.734Z,98.86
2018-01-10T18:46:39.432Z,98.75
2018-01-10T18:49:07.133Z,98.66
2018-01-10T18:51:34.867Z,98.76
2018-01-10T18:54:02.487Z,98.44
2018-01-10T18:56:30.071Z,97.25
2018-01-10T18:58:57.650Z,97.99
2018-01-10T19:01:25.231Z,98.37
2018-01-10T19:03:52.872Z,97.24
2018-01-10T19:06:20.462Z,96.54
2018-01-10T19:08:48.141Z,96.76
2018-01-10T19:11:15.779Z,97.30
2018-01-10T19:13:43.432Z,97.95
2018-01-10T19:16:11.089Z,97.92
2018-01-10T19:18:38.796Z,97.69
2018-01-10T19:21:06.824Z,98.15
2018-01-10T19:23:34.692Z,98.42
2018-01-10T19:26:02.371Z,98.30
2018-01-10T19:28:29.996Z,96.82
2018-01-10T19:30:58.688Z,97.17
2018-01-10T19:33:26.453Z,97.02
2018-01-10T19:35:54.927Z,96.32
2018-01-10T19:38:24.020Z,95.92
2018-01-10T19:40:51.962Z,97.49
2018-01-10T19:43:20.586Z,97.99
2018-01-10T19:45:48.238Z,98.30
2018-01-10T19:48:17.795Z,98.28
2018-01-10T19:50:45.432Z,97.96
2018-01-10T19:53:13.176Z,96.77
2018-01-10T19:55:40.863Z,96.38
2018-01-10T19:58:08.535Z,96.19
2018-01-10T20:00:36.198Z,97.10
2018-01-10T20:03:03.851Z,96.91
2018-01-10T20:05:31.554Z,97.51
2018-01-10T20:08:00.613Z,97.93
2018-01-10T20:10:28.199Z,97.58
2018-01-10T20:12:55.868Z,97.60
2018-01-10T20:15:23.797Z,97.43
2018-01-10T20:17:51.599Z,97.99
2018-01-10T20:20:19.904Z,98.26
2018-01-10T20:22:47.515Z,98.43
2018-01-10T20:25:15.099Z,98.45
2018-01-10T20:27:42.699Z,98.39
2018-01-10T20:30:10.442Z,98.41
2018-01-10T20:32:38.056Z,97.74
2018-01-10T20:35:05.716Z,97.98
2018-01-10T20:37:33.315Z,98.15
2018-01-10T20:40:00.939Z,96.98
2018-01-10T20:42:28.657Z,97.23
2018-01-10T20:44:56.376Z,97.11
2018-01-10T20:47:24.043Z,97.01
2018-01-10T20:49:51.800Z,97.16
2018-01-10T20:52:19.472Z,97.74
2018-01-10T20:54:47.098Z,97.96
2018-01-10T20:57:14.692Z,97.50
2018-01-10T20:59:42.285Z,97.84
2018-01-10T21:02:09.887Z,98.35
2018-01-10T21:04:37.624Z,97.07
2018-01-10T21:07:05.303Z,97.10
2018-01-10T21:09:32.894Z,97.16
2018-01-10T21:12:00.485Z,96.62
2018-01-10T21:14:28.077Z,96.93
2018-01-10T21:16:55.660Z,97.09
2018-01-10T21:19:23.530Z,96.53
2018-01-10T21:21:51.184Z,96.59
2018-01-10T21:24:18.772Z,97.03
2018-01-10T21:26:46.371Z,96.34
2018-01-10T21:29:13.965Z,96.86
2018-01-10T21:31:41.555Z,96.90
2018-01-10T21:34:09.147Z,98.11
2018-01-10T21:36:36.760Z,98.17
2018-01-10T21:39:04.364Z,98.29
2018-01-10T21:41:31.954Z,97.77
2018-01-10T21:43:59.726Z,96.94
2018-01-10T21:46:27.314Z,96.73
2018-01-10T21:48:54.942Z,97.70
2018-01-10T21:51:22.527Z,98.42
2018-01-10T21:53:50.252Z,98.71
2018-01-10T21:56:17.891Z,98.26
2018-01-10T21:58:45.547Z,97.09
2018-01-10T22:01:13.139Z,96.17
2018-01-10T22:03:40.780Z,96.87
2018-01-10T22:06:08.791Z,97.79
2018-01-10T22:08:37.175Z,97.24
2018-01-10T22:11:04.799Z,95.61
2018-01-10T22:13:32.439Z,96.02
2018-01-10T22:16:00.158Z,97.59
2018-01-10T22:18:27.752Z,97.72
2018-01-10T22:20:55.340Z,97.96
2018-01-10T22:23:22.999Z,98.29
2018-01-10T22:25:50.588Z,97.24
2018-01-10T22:28:18.251Z,96.81
2018-01-10T22:30:45.930Z,97.71
2018-01-10T22:33:13.552Z,97.76
2018-01-10T22:35:41.179Z,98.06
2018-01-10T22:38:08.767Z,98.90
2018-01-10T22:40:36.351Z,99.33
2018-01-10T22:43:03.938Z,97.98
2018-01-10T22:45:31.561Z,96.39
2018-01-10T22:47:59.157Z,96.78
2018-01-10T22:50:26.748Z,97.20
2018-01-10T22:52:54.343Z,95.94
2018-01-10T22:55:22.000Z,95.55
2018-01-10T22:57:49.663Z,96.35
2018-01-10T23:00:17.360Z,97.30
2018-01-10T23:02:45.019Z,96.95
2018-01-10T23:05:12.644Z,97.24
2018-01-10T23:07:40.267Z,97.04
2018-01-10T23:10:07.859Z,96.61
2018-01-10T23:12:35.438Z,96.93
2018-01-10T23:15:03.027Z,97.28
2018-01-10T23:17:30.653Z,97.61
2018-01-10T23:19:58.323Z,98.01
2018-01-10T23:22:25.948Z,98.25
2018-01-10T23:24:54.452Z,98.57
2018-01-10T23:27:22.052Z,97.33
2018-01-10T23:29:49.646Z,97.55
2018-01-10T23:32:17.240Z,97.69
2018-01-10T23:34:44.865Z,98.01
2018-01-10T23:37:12.455Z,98.45
2018-01-10T23:39:40.080Z,98.59
2018-01-10T23:42:07.667Z,98.61
2018-01-10T23:44:35.335Z,98.80
2018-01-10T23:47:02.956Z,98.78
2018-01-10T23:49:30.548Z,98.71
2018-01-10T23:51:58.139Z,98.19
2018-01-10T23:54:25.842Z,98.36
2018-01-10T23:56:53.426Z,98.26
2018-01-10T23:59:21.040Z,98.47
